Time;durP1;ratioP1;P1;durP2;ratioP2;P2;SDS_P1;SDS_P2;PMS_P1;PMS_P2;Temp;Humidity;BMP_temperature;BMP_pressure;BME280_temperature;BME280_humidity;BME280_pressure;Samples;Min_cycle;Max_cycle;Signal;HPM_P1;HPM_P2
2022/08/26 00:03:04;;;;;;;21.08;11.40;;;;;;;;;;6064542;23;20193;-90
2022/08/26 00:06:09;;;;;;;32.22;12.38;;;;;;;;;;6065379;23;20195;-89
2022/08/26 00:09:16;;;;;;;26.58;12.00;;;;;;;;;;6065722;23;20513;-90
2022/08/26 00:12:24;;;;;;;25.33;12.55;;;;;;;;;;6065220;23;20221;-89
2022/08/26 00:15:29;;;;;;;25.33;12.38;;;;;;;;;;6065060;23;20285;-90
2022/08/26 00:18:34;;;;;;;25.88;11.65;;;;;;;;;;6066812;23;20176;-90
2022/08/26 00:21:39;;;;;;;28.92;12.73;;;;;;;;;;6048166;23;20593;-88
2022/08/26 00:24:46;;;;;;;24.45;13.07;;;;;;;;;;6065793;23;20251;-88
2022/08/26 00:27:51;;;;;;;30.42;12.80;;;;;;;;;;6065258;23;20171;-88
2022/08/26 00:30:57;;;;;;;25.73;13.00;;;;;;;;;;6064900;23;20179;-90
2022/08/26 00:34:02;;;;;;;22.42;11.95;;;;;;;;;;6048174;23;20171;-89
2022/08/26 00:37:07;;;;;;;28.17;12.98;;;;;;;;;;6064010;23;20262;-88
2022/08/26 00:40:15;;;;;;;24.23;11.63;;;;;;;;;;6065069;23;20253;-87
2022/08/26 00:43:20;;;;;;;26.05;11.82;;;;;;;;;;6063780;23;20172;-89
2022/08/26 00:46:27;;;;;;;23.60;11.98;;;;;;;;;;6063755;23;20179;-88
2022/08/26 00:49:36;;;;;;;25.25;12.05;;;;;;;;;;6064513;23;20510;-88
2022/08/26 00:52:43;;;;;;;26.17;12.70;;;;;;;;;;6047296;23;20284;-89
2022/08/26 00:55:51;;;;;;;19.50;11.80;;;;;;;;;;6048170;23;20170;-89
2022/08/26 00:58:57;;;;;;;24.17;12.35;;;;;;;;;;6064603;23;20227;-88
2022/08/26 01:02:03;;;;;;;24.30;11.48;;;;;;;;;;6061892;23;20255;-91
2022/08/26 01:05:10;;;;;;;18.27;11.52;;;;;;;;;;6062200;23;20182;-88
2022/08/26 01:08:15;;;;;;;23.65;12.43;;;;;;;;;;6062037;23;20196;-89
2022/08/26 01:11:22;;;;;;;25.92;11.95;;;;;;;;;;6063907;23;20230;-89
2022/08/26 01:14:30;;;;;;;27.08;12.15;;;;;;;;;;6063139;23;20299;-90
2022/08/26 01:17:35;;;;;;;21.42;11.63;;;;;;;;;;6049952;23;20172;-88
2022/08/26 01:20:46;;;;;;;23.13;12.38;;;;;;;;;;6061916;23;20179;-89
2022/08/26 01:23:53;;;;;;;24.50;11.75;;;;;;;;;;6047215;23;20655;-88
2022/08/26 01:27:00;;;;;;;24.08;12.82;;;;;;;;;;6062547;23;20625;-89
2022/08/26 01:30:06;;;;;;;23.52;12.73;;;;;;;;;;6063441;23;20243;-88
2022/08/26 01:33:15;;;;;;;26.08;12.73;;;;;;;;;;6062018;23;20199;-88
2022/08/26 01:36:20;;;;;;;33.38;13.02;;;;;;;;;;6044883;23;20172;-89
2022/08/26 01:39:27;;;;;;;21.55;12.13;;;;;;;;;;6046111;23;20159;-88
2022/08/26 01:42:32;;;;;;;23.08;12.23;;;;;;;;;;6045796;23;20280;-89
2022/08/26 01:45:40;;;;;;;26.48;12.50;;;;;;;;;;6046605;23;20175;-91
2022/08/26 01:48:45;;;;;;;29.17;12.75;;;;;;;;;;6065150;23;20192;-89
2022/08/26 01:51:51;;;;;;;25.02;12.75;;;;;;;;;;6063591;23;20175;-89
2022/08/26 01:54:59;;;;;;;22.30;12.00;;;;;;;;;;6047073;23;20175;-89
2022/08/26 01:58:05;;;;;;;19.00;11.60;;;;;;;;;;6048529;23;20255;-89
2022/08/26 02:01:10;;;;;;;27.67;12.07;;;;;;;;;;6063397;23;20174;-89
2022/08/26 02:04:19;;;;;;;25.15;11.70;;;;;;;;;;6065411;23;20174;-89
2022/08/26 02:07:25;;;;;;;21.92;12.32;;;;;;;;;;6064857;23;20223;-88
2022/08/26 02:10:31;;;;;;;21.95;12.90;;;;;;;;;;6064220;23;20170;-88
2022/08/26 02:13:40;;;;;;;21.25;11.85;;;;;;;;;;6046495;23;20203;-90
2022/08/26 02:16:47;;;;;;;25.55;12.50;;;;;;;;;;6063991;23;20176;-88
2022/08/26 02:19:52;;;;;;;23.17;13.30;;;;;;;;;;6065024;23;20298;-90
2022/08/26 02:22:57;;;;;;;25.83;12.73;;;;;;;;;;6063719;23;20243;-88
2022/08/26 02:26:08;;;;;;;25.30;12.50;;;;;;;;;;6063257;23;20202;-89
2022/08/26 02:29:17;;;;;;;26.40;12.90;;;;;;;;;;6063410;23;20175;-89
2022/08/26 02:32:22;;;;;;;26.13;12.73;;;;;;;;;;6064829;23;20175;-88
2022/08/26 02:35:27;;;;;;;24.65;12.43;;;;;;;;;;6064697;23;20264;-88
2022/08/26 02:38:31;;;;;;;25.05;12.90;;;;;;;;;;6064615;23;20171;-89
2022/08/26 02:41:38;;;;;;;24.20;12.95;;;;;;;;;;6063798;23;20228;-87
2022/08/26 02:44:43;;;;;;;26.77;13.85;;;;;;;;;;6063098;23;20172;-88
2022/08/26 02:47:48;;;;;;;25.75;13.85;;;;;;;;;;6064524;23;20713;-88
2022/08/26 02:50:53;;;;;;;24.65;13.10;;;;;;;;;;6046893;23;20205;-89
2022/08/26 02:53:58;;;;;;;25.00;14.00;;;;;;;;;;6063531;23;20195;-88
2022/08/26 02:57:05;;;;;;;26.65;13.38;;;;;;;;;;6064126;23;20175;-89
2022/08/26 03:00:13;;;;;;;24.13;12.98;;;;;;;;;;6063737;23;20182;-90
2022/08/26 03:03:18;;;;;;;25.83;12.05;;;;;;;;;;6062487;23;20296;-89
2022/08/26 03:06:24;;;;;;;34.60;15.13;;;;;;;;;;6046809;23;20244;-88
2022/08/26 03:09:29;;;;;;;31.60;14.38;;;;;;;;;;6046346;23;20167;-86
2022/08/26 03:12:35;;;;;;;28.50;14.23;;;;;;;;;;6047535;23;20199;-88
2022/08/26 03:15:41;;;;;;;26.92;14.30;;;;;;;;;;6062811;23;20186;-88
2022/08/26 03:18:46;;;;;;;28.48;13.65;;;;;;;;;;6046719;23;20159;-88
2022/08/26 03:21:51;;;;;;;24.88;13.82;;;;;;;;;;6063181;23;20172;-91
2022/08/26 03:24:56;;;;;;;29.25;14.13;;;;;;;;;;6046324;23;20170;-89
2022/08/26 03:28:03;;;;;;;31.42;13.85;;;;;;;;;;6063137;23;20175;-89
2022/08/26 03:31:07;;;;;;;30.20;14.45;;;;;;;;;;6048929;23;20187;-89
2022/08/26 03:34:13;;;;;;;29.80;14.00;;;;;;;;;;6064637;23;20222;-89
2022/08/26 03:37:18;;;;;;;24.15;13.23;;;;;;;;;;6064293;23;20179;-89
2022/08/26 03:40:26;;;;;;;24.90;12.75;;;;;;;;;;6063244;23;20195;-88
2022/08/26 03:43:32;;;;;;;34.75;14.05;;;;;;;;;;6064193;23;20179;-89
2022/08/26 03:47:03;;;;;;;32.95;13.88;;;;;;;;;;6048185;23;20214;-89
2022/08/26 03:50:10;;;;;;;27.38;13.75;;;;;;;;;;6062322;23;20252;-89
2022/08/26 03:53:15;;;;;;;28.05;13.85;;;;;;;;;;6046377;23;20195;-91
2022/08/26 03:56:20;;;;;;;33.38;15.18;;;;;;;;;;6047282;23;20174;-89
2022/08/26 03:59:26;;;;;;;25.02;14.48;;;;;;;;;;6063781;23;20243;-89
2022/08/26 04:03:10;;;;;;;30.42;14.27;;;;;;;;;;6044231;23;20319;-89
2022/08/26 04:06:15;;;;;;;26.95;13.85;;;;;;;;;;6063388;23;20200;-89
2022/08/26 04:09:21;;;;;;;23.23;13.35;;;;;;;;;;6047621;23;20576;-88
2022/08/26 04:12:26;;;;;;;28.95;14.95;;;;;;;;;;6047820;23;20174;-87
2022/08/26 04:15:33;;;;;;;28.92;14.07;;;;;;;;;;6065451;23;20304;-87
2022/08/26 04:18:38;;;;;;;28.02;14.52;;;;;;;;;;6065771;23;20176;-87
2022/08/26 04:21:44;;;;;;;27.98;14.48;;;;;;;;;;6048688;23;20160;-86
2022/08/26 04:24:49;;;;;;;26.17;14.10;;;;;;;;;;6065037;23;20190;-87
2022/08/26 04:27:54;;;;;;;26.10;15.05;;;;;;;;;;6064674;23;20167;-87
2022/08/26 04:31:01;;;;;;;28.27;15.80;;;;;;;;;;6049687;23;20171;-89
2022/08/26 04:34:06;;;;;;;27.60;14.93;;;;;;;;;;6063558;23;20195;-90
2022/08/26 04:37:12;;;;;;;26.60;15.45;;;;;;;;;;6045839;23;20178;-87
2022/08/26 04:40:17;;;;;;;30.65;16.00;;;;;;;;;;6063644;23;20178;-88
2022/08/26 04:43:22;;;;;;;25.42;14.90;;;;;;;;;;6063898;23;20174;-88
2022/08/26 04:46:31;;;;;;;30.05;15.43;;;;;;;;;;6046564;23;20232;-88
2022/08/26 04:49:37;;;;;;;28.23;15.40;;;;;;;;;;6047646;23;20171;-89
2022/08/26 04:52:42;;;;;;;28.08;15.27;;;;;;;;;;6045252;23;20179;-89
2022/08/26 04:55:47;;;;;;;32.80;16.38;;;;;;;;;;6064304;23;20187;-85
2022/08/26 04:58:53;;;;;;;27.95;14.93;;;;;;;;;;6064134;23;20179;-89
2022/08/26 05:02:00;;;;;;;31.85;15.38;;;;;;;;;;6063364;23;20501;-87
2022/08/26 05:05:06;;;;;;;33.25;15.93;;;;;;;;;;6064805;23;20176;-88
2022/08/26 05:08:11;;;;;;;27.63;16.05;;;;;;;;;;6047665;23;20228;-88
2022/08/26 05:11:16;;;;;;;32.38;16.45;;;;;;;;;;6049458;23;20163;-90
2022/08/26 05:14:22;;;;;;;32.58;16.50;;;;;;;;;;6065194;23;20206;-89
2022/08/26 05:17:30;;;;;;;30.33;15.30;;;;;;;;;;6048831;23;20223;-88
2022/08/26 05:20:39;;;;;;;29.40;15.90;;;;;;;;;;6065613;23;20632;-87
2022/08/26 05:23:45;;;;;;;28.17;14.73;;;;;;;;;;6048029;23;20171;-88
2022/08/26 05:26:50;;;;;;;27.33;14.82;;;;;;;;;;6046994;23;20190;-88
2022/08/26 05:29:57;;;;;;;23.65;14.30;;;;;;;;;;6066405;23;20175;-90
2022/08/26 05:33:04;;;;;;;25.25;14.80;;;;;;;;;;6063867;23;20171;-88
2022/08/26 05:36:10;;;;;;;29.88;14.70;;;;;;;;;;6066160;23;20174;-88
2022/08/26 05:39:15;;;;;;;27.42;14.73;;;;;;;;;;6048161;23;20292;-89
2022/08/26 05:42:23;;;;;;;29.42;14.60;;;;;;;;;;6065619;23;20175;-90
2022/08/26 05:45:32;;;;;;;29.02;14.88;;;;;;;;;;6065827;23;20175;-89
2022/08/26 05:48:40;;;;;;;27.52;14.20;;;;;;;;;;6067184;23;20686;-87
2022/08/26 05:51:46;;;;;;;28.52;14.55;;;;;;;;;;6049149;23;20502;-88
2022/08/26 05:54:51;;;;;;;24.25;13.73;;;;;;;;;;6065548;23;20203;-89
2022/08/26 05:57:56;;;;;;;29.75;13.93;;;;;;;;;;6065369;23;20171;-88
2022/08/26 06:01:03;;;;;;;25.13;13.32;;;;;;;;;;6049506;23;20163;-87
2022/08/26 06:04:09;;;;;;;22.20;13.32;;;;;;;;;;6049361;23;20199;-88
2022/08/26 06:07:15;;;;;;;24.48;14.20;;;;;;;;;;6067383;23;20175;-88
2022/08/26 06:10:20;;;;;;;24.80;13.82;;;;;;;;;;6048585;23;20171;-88
2022/08/26 06:13:27;;;;;;;30.52;14.52;;;;;;;;;;6064628;23;20282;-89
2022/08/26 06:16:33;;;;;;;23.08;13.85;;;;;;;;;;6065840;23;20179;-87
2022/08/26 06:19:40;;;;;;;36.45;15.63;;;;;;;;;;6065500;23;20171;-88
2022/08/26 06:26:07;;;;;;;30.63;14.40;;;;;;;;;;6065952;23;20212;-89
2022/08/26 06:29:12;;;;;;;27.00;14.80;;;;;;;;;;6063807;23;20171;-88
2022/08/26 06:32:17;;;;;;;26.30;14.23;;;;;;;;;;6049286;23;20167;-88
2022/08/26 06:35:23;;;;;;;27.45;14.07;;;;;;;;;;6066126;23;20183;-89
2022/08/26 06:38:29;;;;;;;30.92;14.77;;;;;;;;;;6048975;23;20175;-88
2022/08/26 06:41:34;;;;;;;28.27;14.38;;;;;;;;;;6051185;23;20183;-88
2022/08/26 06:44:40;;;;;;;25.27;14.52;;;;;;;;;;6049814;23;20170;-88
2022/08/26 06:48:28;;;;;;;28.38;15.05;;;;;;;;;;6064580;23;20183;-88
2022/08/26 06:51:36;;;;;;;26.80;13.75;;;;;;;;;;6066207;23;20180;-89
2022/08/26 06:54:42;;;;;;;25.85;14.30;;;;;;;;;;6066702;23;20251;-89
2022/08/26 06:57:47;;;;;;;25.25;13.52;;;;;;;;;;6065472;23;20538;-88
2022/08/26 07:00:52;;;;;;;27.05;13.68;;;;;;;;;;6065015;23;20216;-89
2022/08/26 07:03:59;;;;;;;22.65;12.80;;;;;;;;;;6048423;23;20186;-92
2022/08/26 07:07:05;;;;;;;24.17;13.27;;;;;;;;;;6051716;23;20180;-88
2022/08/26 07:10:11;;;;;;;24.77;13.20;;;;;;;;;;6065836;23;20203;-89
2022/08/26 07:13:17;;;;;;;22.08;12.88;;;;;;;;;;6048331;23;20245;-88
2022/08/26 07:16:22;;;;;;;19.17;12.82;;;;;;;;;;6063909;23;20530;-87
2022/08/26 07:19:27;;;;;;;21.23;12.93;;;;;;;;;;6047083;23;20210;-89
2022/08/26 07:22:33;;;;;;;25.27;13.52;;;;;;;;;;6046963;23;20175;-87
2022/08/26 07:25:39;;;;;;;20.40;12.40;;;;;;;;;;6048929;23;20675;-89
2022/08/26 07:28:44;;;;;;;29.73;13.30;;;;;;;;;;6046621;23;20171;-90
2022/08/26 07:31:50;;;;;;;24.38;12.65;;;;;;;;;;6046985;23;20228;-87
2022/08/26 07:34:55;;;;;;;23.02;13.27;;;;;;;;;;6064761;23;20293;-88
2022/08/26 07:38:02;;;;;;;26.83;13.00;;;;;;;;;;6049579;23;20554;-88
2022/08/26 07:41:08;;;;;;;24.88;13.32;;;;;;;;;;6065236;23;20598;-89
2022/08/26 07:44:13;;;;;;;32.67;13.68;;;;;;;;;;6047444;23;20191;-88
2022/08/26 07:47:50;;;;;;;25.95;13.23;;;;;;;;;;6047403;23;20175;-89
2022/08/26 07:50:55;;;;;;;20.55;12.13;;;;;;;;;;6047233;23;20175;-89
2022/08/26 07:54:02;;;;;;;29.25;13.02;;;;;;;;;;6065090;23;20195;-88
2022/08/26 07:57:07;;;;;;;30.05;12.57;;;;;;;;;;6071229;23;20170;-89
2022/08/26 08:00:14;;;;;;;21.40;11.65;;;;;;;;;;6066830;23;20170;-89
2022/08/26 08:03:20;;;;;;;18.58;11.32;;;;;;;;;;6049604;23;20196;-89
2022/08/26 08:06:26;;;;;;;24.73;11.93;;;;;;;;;;6053414;23;20239;-88
2022/08/26 08:09:33;;;;;;;24.85;12.95;;;;;;;;;;6051927;23;20174;-88
2022/08/26 08:12:38;;;;;;;22.23;12.15;;;;;;;;;;6066555;23;20178;-89
2022/08/26 08:15:43;;;;;;;23.48;12.30;;;;;;;;;;6067187;23;20199;-90
2022/08/26 08:18:49;;;;;;;24.02;12.10;;;;;;;;;;6064560;23;20179;-89
2022/08/26 08:21:54;;;;;;;19.67;11.30;;;;;;;;;;6050252;23;20220;-89
2022/08/26 08:25:00;;;;;;;21.63;12.32;;;;;;;;;;6066610;23;20171;-89
2022/08/26 08:28:05;;;;;;;25.80;11.57;;;;;;;;;;6050471;23;20155;-89
2022/08/26 08:31:18;;;;;;;18.05;11.25;;;;;;;;;;6067468;23;20229;-90
2022/08/26 08:34:23;;;;;;;19.17;10.30;;;;;;;;;;6065356;23;20269;-90
2022/08/26 08:37:28;;;;;;;20.92;11.30;;;;;;;;;;6049576;23;20163;-90
2022/08/26 08:40:35;;;;;;;22.45;10.80;;;;;;;;;;6050503;23;20179;-89
2022/08/26 08:43:42;;;;;;;19.25;10.18;;;;;;;;;;6065442;23;20199;-91
2022/08/26 08:46:49;;;;;;;23.08;10.80;;;;;;;;;;6051945;23;20170;-91
2022/08/26 08:49:55;;;;;;;15.02;9.93;;;;;;;;;;6064679;23;20178;-90
2022/08/26 08:53:06;;;;;;;17.83;10.00;;;;;;;;;;6067890;23;20597;-91
2022/08/26 08:56:19;;;;;;;20.15;9.77;;;;;;;;;;6068871;23;20655;-90
2022/08/26 08:59:25;;;;;;;19.35;10.15;;;;;;;;;;6069019;23;20197;-90
2022/08/26 09:02:35;;;;;;;17.80;8.65;;;;;;;;;;6067449;23;20189;-89
2022/08/26 09:05:43;;;;;;;16.65;8.88;;;;;;;;;;6066799;23;20167;-90
2022/08/26 09:08:56;;;;;;;18.05;9.43;;;;;;;;;;6052726;23;20200;-91
2022/08/26 09:12:04;;;;;;;15.77;9.05;;;;;;;;;;6069197;23;20188;-90
2022/08/26 09:15:17;;;;;;;16.10;9.27;;;;;;;;;;6068778;23;20209;-90
2022/08/26 09:18:29;;;;;;;16.50;8.60;;;;;;;;;;6067288;23;20175;-90
2022/08/26 09:21:35;;;;;;;15.60;8.15;;;;;;;;;;6069217;23;20174;-89
2022/08/26 09:24:41;;;;;;;17.60;8.27;;;;;;;;;;6050959;23;20150;-91
2022/08/26 09:27:48;;;;;;;16.00;8.68;;;;;;;;;;6051023;23;20174;-92
2022/08/26 09:31:00;;;;;;;15.82;7.90;;;;;;;;;;6067519;23;20587;-89
2022/08/26 09:34:07;;;;;;;16.20;7.70;;;;;;;;;;6067249;23;20178;-90
2022/08/26 09:37:13;;;;;;;17.52;7.50;;;;;;;;;;6065520;23;20263;-88
2022/08/26 09:40:22;;;;;;;14.57;6.40;;;;;;;;;;6066446;23;20170;-90
2022/08/26 09:43:28;;;;;;;16.02;6.65;;;;;;;;;;6065666;23;20175;-90
2022/08/26 09:46:34;;;;;;;14.20;6.97;;;;;;;;;;6052634;23;20174;-88
2022/08/26 09:49:40;;;;;;;15.25;7.30;;;;;;;;;;6056485;23;20175;-89
2022/08/26 09:52:46;;;;;;;13.77;7.50;;;;;;;;;;6049646;23;20300;-89
2022/08/26 09:55:53;;;;;;;13.55;6.88;;;;;;;;;;6066661;23;20186;-90
2022/08/26 09:59:00;;;;;;;16.27;7.60;;;;;;;;;;6050603;23;20598;-90
2022/08/26 10:02:17;;;;;;;13.38;7.30;;;;;;;;;;6066577;23;20158;-90
2022/08/26 10:05:30;;;;;;;20.83;7.82;;;;;;;;;;6052036;23;20166;-90
2022/08/26 10:08:37;;;;;;;13.85;8.30;;;;;;;;;;6067787;23;20223;-89
2022/08/26 10:11:45;;;;;;;13.23;7.88;;;;;;;;;;6069677;23;20178;-90
2022/08/26 10:14:53;;;;;;;15.70;7.95;;;;;;;;;;6067714;23;20654;-90
2022/08/26 10:18:02;;;;;;;14.23;7.72;;;;;;;;;;6048289;23;20171;-90
2022/08/26 10:21:09;;;;;;;11.23;7.57;;;;;;;;;;6068032;23;20639;-90
2022/08/26 10:24:18;;;;;;;17.83;7.78;;;;;;;;;;6063890;23;20174;-89
2022/08/26 10:27:25;;;;;;;17.52;7.68;;;;;;;;;;6065964;23;20194;-90
2022/08/26 10:30:34;;;;;;;14.30;7.55;;;;;;;;;;6065755;23;20174;-91
2022/08/26 10:33:39;;;;;;;15.15;8.40;;;;;;;;;;6063283;23;20182;-90
2022/08/26 10:36:53;;;;;;;15.50;8.13;;;;;;;;;;6064834;23;20179;-93
2022/08/26 10:40:01;;;;;;;16.05;8.48;;;;;;;;;;6065074;23;20288;-92
2022/08/26 10:43:07;;;;;;;15.95;9.27;;;;;;;;;;6065011;23;20171;-91
2022/08/26 10:46:15;;;;;;;17.60;8.52;;;;;;;;;;6065569;23;20166;-90
2022/08/26 10:49:20;;;;;;;17.30;9.23;;;;;;;;;;6065517;23;20183;-89
2022/08/26 10:52:31;;;;;;;15.50;9.48;;;;;;;;;;6065713;23;20201;-88
2022/08/26 10:55:39;;;;;;;20.55;9.23;;;;;;;;;;6068401;23;20214;-90
2022/08/26 10:58:54;;;;;;;20.33;10.10;;;;;;;;;;6067196;23;20174;-89
2022/08/26 11:02:05;;;;;;;16.20;9.57;;;;;;;;;;6067340;23;20170;-89
2022/08/26 11:05:15;;;;;;;20.13;10.45;;;;;;;;;;6066496;23;20173;-88
2022/08/26 11:08:30;;;;;;;22.23;11.20;;;;;;;;;;6069028;23;20171;-92
2022/08/26 11:11:45;;;;;;;21.08;10.13;;;;;;;;;;6051945;23;20226;-90
2022/08/26 11:14:50;;;;;;;25.75;10.90;;;;;;;;;;6066348;23;20757;-90
2022/08/26 11:17:58;;;;;;;21.90;10.35;;;;;;;;;;6065559;23;20170;-90
2022/08/26 11:21:03;;;;;;;21.33;10.73;;;;;;;;;;6066694;23;20201;-90
2022/08/26 11:24:26;;;;;;;27.15;11.63;;;;;;;;;;6065088;23;20171;-89
2022/08/26 11:28:02;;;;;;;20.70;11.48;;;;;;;;;;6065181;23;20199;-91
2022/08/26 11:31:09;;;;;;;22.88;10.55;;;;;;;;;;6064449;23;20179;-91
2022/08/26 11:34:15;;;;;;;22.50;10.55;;;;;;;;;;6065950;23;20198;-91
2022/08/26 11:37:22;;;;;;;19.25;10.38;;;;;;;;;;6065517;23;20247;-88
2022/08/26 11:40:29;;;;;;;18.75;9.70;;;;;;;;;;6066409;23;20291;-90
2022/08/26 11:43:35;;;;;;;19.25;8.55;;;;;;;;;;6065135;23;20847;-90
2022/08/26 11:46:42;;;;;;;20.60;7.60;;;;;;;;;;6065031;23;20175;-90
2022/08/26 11:49:48;;;;;;;14.75;7.68;;;;;;;;;;6065407;23;20187;-87
2022/08/26 11:52:55;;;;;;;24.90;8.15;;;;;;;;;;6065157;23;20178;-88
2022/08/26 11:56:03;;;;;;;13.65;7.13;;;;;;;;;;6066114;23;20195;-88
2022/08/26 11:59:10;;;;;;;16.30;7.00;;;;;;;;;;6066551;23;20174;-88
2022/08/26 12:02:18;;;;;;;14.68;6.57;;;;;;;;;;6051142;23;20246;-88
2022/08/26 12:05:29;;;;;;;12.98;5.65;;;;;;;;;;6070436;23;20243;-89
2022/08/26 12:08:35;;;;;;;15.85;5.85;;;;;;;;;;6064165;23;20171;-89
2022/08/26 12:11:40;;;;;;;10.55;5.13;;;;;;;;;;6064401;23;20171;-88
2022/08/26 12:14:48;;;;;;;10.73;3.75;;;;;;;;;;6064771;23;20167;-91
2022/08/26 12:17:53;;;;;;;7.28;4.00;;;;;;;;;;6051808;23;20178;-88
2022/08/26 12:21:02;;;;;;;10.88;4.63;;;;;;;;;;6070424;23;20203;-88
2022/08/26 12:24:07;;;;;;;15.88;3.90;;;;;;;;;;6046449;23;20212;-87
2022/08/26 12:27:16;;;;;;;13.45;4.53;;;;;;;;;;6066215;23;20194;-89
2022/08/26 12:30:22;;;;;;;10.65;3.90;;;;;;;;;;6048806;23;20184;-88
2022/08/26 12:33:28;;;;;;;8.95;4.13;;;;;;;;;;6066042;23;20194;-88
2022/08/26 12:36:37;;;;;;;11.63;3.22;;;;;;;;;;6066384;23;20190;-88
2022/08/26 12:39:43;;;;;;;3.35;2.13;;;;;;;;;;6066341;23;20175;-86
2022/08/26 12:42:48;;;;;;;7.57;2.47;;;;;;;;;;6062111;23;20179;-87
2022/08/26 12:46:23;;;;;;;10.52;3.40;;;;;;;;;;6063665;23;20179;-88
2022/08/26 12:49:29;;;;;;;7.72;3.75;;;;;;;;;;6062361;23;20223;-88
2022/08/26 12:52:40;;;;;;;8.65;5.10;;;;;;;;;;6061256;23;20179;-89
2022/08/26 12:55:47;;;;;;;9.45;3.92;;;;;;;;;;6063864;23;20199;-87
2022/08/26 12:59:03;;;;;;;9.82;4.03;;;;;;;;;;6065528;23;20203;-89
2022/08/26 13:02:09;;;;;;;9.65;3.80;;;;;;;;;;6067271;23;20168;-90
2022/08/26 13:05:20;;;;;;;9.32;3.50;;;;;;;;;;6064306;23;20183;-89
2022/08/26 13:08:27;;;;;;;7.75;2.58;;;;;;;;;;6063802;23;20176;-89
2022/08/26 13:11:34;;;;;;;4.45;2.30;;;;;;;;;;6063636;23;20175;-89
2022/08/26 13:14:39;;;;;;;10.88;2.58;;;;;;;;;;6064093;23;20171;-90
2022/08/26 13:17:44;;;;;;;8.13;2.55;;;;;;;;;;6064107;23;20623;-89
2022/08/26 13:20:49;;;;;;;9.25;3.13;;;;;;;;;;6063798;23;20171;-90
2022/08/26 13:23:56;;;;;;;6.00;2.40;;;;;;;;;;6063887;23;20323;-89
2022/08/26 13:27:01;;;;;;;5.78;2.35;;;;;;;;;;6064403;23;20194;-90
2022/08/26 13:30:07;;;;;;;7.22;2.60;;;;;;;;;;6065946;23;20627;-89
2022/08/26 13:33:13;;;;;;;13.60;3.40;;;;;;;;;;6065251;23;20176;-89
2022/08/26 13:36:18;;;;;;;11.05;2.60;;;;;;;;;;6065646;23;20194;-89
2022/08/26 13:39:26;;;;;;;9.40;3.00;;;;;;;;;;6066379;23;20167;-90
2022/08/26 13:42:31;;;;;;;11.95;3.25;;;;;;;;;;6047501;23;20203;-87
2022/08/26 13:45:36;;;;;;;6.53;2.58;;;;;;;;;;6049260;23;20225;-88
2022/08/26 13:48:41;;;;;;;6.07;2.60;;;;;;;;;;6066027;23;20634;-89
2022/08/26 13:51:46;;;;;;;9.68;3.55;;;;;;;;;;6068606;23;20170;-89
2022/08/26 13:54:52;;;;;;;7.43;2.70;;;;;;;;;;6065642;23;20170;-88
2022/08/26 13:57:58;;;;;;;7.57;2.70;;;;;;;;;;6064532;23;20166;-89
2022/08/26 14:01:03;;;;;;;5.82;2.78;;;;;;;;;;6065184;23;20174;-90
2022/08/26 14:04:08;;;;;;;6.63;3.33;;;;;;;;;;6048352;23;20175;-89
2022/08/26 14:07:13;;;;;;;7.07;3.00;;;;;;;;;;6065555;23;20217;-89
2022/08/26 14:10:20;;;;;;;9.50;3.40;;;;;;;;;;6064387;23;20179;-87
2022/08/26 14:13:26;;;;;;;8.27;2.67;;;;;;;;;;6047426;23;20175;-88
2022/08/26 14:16:33;;;;;;;8.40;3.65;;;;;;;;;;6064905;23;20194;-88
2022/08/26 14:19:38;;;;;;;9.90;3.88;;;;;;;;;;6048564;23;20171;-89
2022/08/26 14:22:44;;;;;;;6.10;3.35;;;;;;;;;;6064629;23;20169;-89
2022/08/26 14:25:51;;;;;;;6.80;3.53;;;;;;;;;;6062854;23;20190;-89
2022/08/26 14:28:57;;;;;;;9.38;3.63;;;;;;;;;;6064587;23;20475;-88
2022/08/26 14:32:05;;;;;;;6.72;3.50;;;;;;;;;;6065255;23;20198;-88
2022/08/26 14:35:12;;;;;;;7.13;3.22;;;;;;;;;;6064407;23;20182;-88
2022/08/26 14:38:17;;;;;;;8.57;3.33;;;;;;;;;;6062708;23;20167;-90
2022/08/26 14:41:25;;;;;;;9.60;3.60;;;;;;;;;;6063317;23;20171;-89
2022/08/26 14:44:33;;;;;;;5.00;2.90;;;;;;;;;;6047841;23;20195;-88
2022/08/26 14:47:38;;;;;;;6.93;3.33;;;;;;;;;;6065799;23;20174;-88
2022/08/26 14:50:43;;;;;;;8.35;2.85;;;;;;;;;;6065094;23;20627;-89
2022/08/26 14:57:13;;;;;;;7.45;3.38;;;;;;;;;;6063798;23;20197;-87
2022/08/26 15:00:18;;;;;;;5.32;3.08;;;;;;;;;;6066041;23;20194;-87
2022/08/26 15:03:23;;;;;;;8.15;3.50;;;;;;;;;;6064427;23;20171;-90
2022/08/26 15:06:30;;;;;;;7.63;3.20;;;;;;;;;;6064718;23;20154;-87
2022/08/26 15:09:36;;;;;;;9.77;2.85;;;;;;;;;;6064660;23;20178;-88
2022/08/26 15:12:43;;;;;;;5.40;3.03;;;;;;;;;;6065531;23;20283;-91
2022/08/26 15:15:49;;;;;;;5.15;2.60;;;;;;;;;;6048291;23;20194;-88
2022/08/26 15:18:54;;;;;;;7.85;3.00;;;;;;;;;;6066192;23;20198;-89
2022/08/26 15:21:59;;;;;;;8.90;3.10;;;;;;;;;;6066392;23;20175;-89
2022/08/26 15:25:04;;;;;;;6.30;2.80;;;;;;;;;;6064058;23;20270;-88
2022/08/26 15:28:11;;;;;;;6.85;2.80;;;;;;;;;;6048390;23;20191;-88
2022/08/26 15:31:16;;;;;;;5.78;2.53;;;;;;;;;;6068701;23;20178;-89
2022/08/26 15:34:21;;;;;;;7.18;2.72;;;;;;;;;;6066113;23;20223;-87
2022/08/26 15:37:26;;;;;;;10.23;2.58;;;;;;;;;;6065399;23;20282;-87
2022/08/26 15:40:31;;;;;;;5.82;2.58;;;;;;;;;;6064478;23;20266;-88
2022/08/26 15:43:38;;;;;;;4.18;2.63;;;;;;;;;;6048846;23;20178;-88
2022/08/26 15:46:44;;;;;;;5.70;2.50;;;;;;;;;;6063257;23;20216;-90
2022/08/26 15:49:49;;;;;;;7.72;2.70;;;;;;;;;;6063614;23;20174;-88
2022/08/26 15:52:54;;;;;;;7.68;3.03;;;;;;;;;;6063539;23;20585;-88
2022/08/26 15:56:00;;;;;;;4.38;2.60;;;;;;;;;;6066518;23;20223;-88
2022/08/26 15:59:07;;;;;;;7.90;2.85;;;;;;;;;;6063610;23;20171;-86
2022/08/26 16:02:13;;;;;;;11.15;2.85;;;;;;;;;;6064378;23;20175;-88
2022/08/26 16:05:18;;;;;;;8.32;3.28;;;;;;;;;;6063738;23;20179;-90
2022/08/26 16:08:23;;;;;;;9.18;2.85;;;;;;;;;;6064791;23;20537;-88
2022/08/26 16:11:29;;;;;;;7.20;2.40;;;;;;;;;;6063743;23;20183;-88
2022/08/26 16:14:35;;;;;;;7.90;2.67;;;;;;;;;;6047676;23;20297;-87
2022/08/26 16:17:40;;;;;;;4.18;2.70;;;;;;;;;;6062841;23;20195;-88
2022/08/26 16:20:50;;;;;;;6.20;2.92;;;;;;;;;;6063713;23;20174;-88
2022/08/26 16:23:55;;;;;;;5.03;2.90;;;;;;;;;;6064035;23;20239;-88
2022/08/26 16:27:01;;;;;;;4.53;2.70;;;;;;;;;;6064485;23;20198;-87
2022/08/26 16:30:08;;;;;;;7.72;3.20;;;;;;;;;;6063190;23;20171;-88
2022/08/26 16:33:13;;;;;;;5.65;2.78;;;;;;;;;;6063704;23;20171;-90
2022/08/26 16:36:18;;;;;;;9.88;3.38;;;;;;;;;;6061733;23;20308;-88
2022/08/26 16:39:26;;;;;;;7.13;2.85;;;;;;;;;;6031662;23;20175;-90
2022/08/26 16:42:31;;;;;;;8.90;3.00;;;;;;;;;;6050786;23;20179;-88
2022/08/26 16:45:39;;;;;;;9.35;4.00;;;;;;;;;;6070569;23;20174;-89
2022/08/26 16:48:47;;;;;;;5.18;3.20;;;;;;;;;;6066077;23;20172;-87
2022/08/26 16:51:52;;;;;;;9.77;3.20;;;;;;;;;;6062127;23;20174;-88
2022/08/26 16:54:57;;;;;;;5.90;3.38;;;;;;;;;;6066149;23;20226;-88
2022/08/26 16:58:02;;;;;;;8.73;3.47;;;;;;;;;;6064806;23;20207;-88
2022/08/26 17:01:08;;;;;;;6.20;3.40;;;;;;;;;;6064083;23;20174;-88
2022/08/26 17:04:13;;;;;;;5.95;3.15;;;;;;;;;;6063703;23;20171;-87
2022/08/26 17:07:18;;;;;;;7.20;3.25;;;;;;;;;;6066214;23;20610;-89
2022/08/26 17:10:23;;;;;;;8.88;3.17;;;;;;;;;;6046890;23;20167;-89
2022/08/26 17:13:29;;;;;;;5.38;3.13;;;;;;;;;;6065608;23;20198;-89
2022/08/26 17:16:36;;;;;;;6.03;3.25;;;;;;;;;;6064399;23;20199;-88
2022/08/26 17:19:41;;;;;;;8.27;3.30;;;;;;;;;;6064172;23;20278;-88
2022/08/26 17:22:58;;;;;;;7.72;3.80;;;;;;;;;;6069609;23;20166;-88
2022/08/26 17:26:03;;;;;;;7.82;3.60;;;;;;;;;;6063834;23;20195;-87
2022/08/26 17:29:09;;;;;;;10.35;3.95;;;;;;;;;;6063408;23;20175;-86
2022/08/26 17:32:15;;;;;;;11.43;4.43;;;;;;;;;;6047644;23;20175;-88
2022/08/26 17:35:20;;;;;;;7.63;3.80;;;;;;;;;;6045629;23;20626;-89
2022/08/26 17:38:27;;;;;;;7.75;3.60;;;;;;;;;;6046945;23;20199;-89
2022/08/26 17:41:32;;;;;;;8.93;4.10;;;;;;;;;;6062973;23;20271;-90
2022/08/26 17:44:37;;;;;;;13.75;4.40;;;;;;;;;;6064531;23;20171;-89
2022/08/26 17:51:29;;;;;;;15.25;4.68;;;;;;;;;;6047673;23;20170;-88
2022/08/26 17:54:34;;;;;;;11.30;5.00;;;;;;;;;;6046467;23;20179;-90
2022/08/26 17:57:39;;;;;;;8.85;3.80;;;;;;;;;;6049562;23;20802;-88
2022/08/26 18:00:45;;;;;;;12.90;4.15;;;;;;;;;;6066316;23;20224;-89
2022/08/26 18:03:50;;;;;;;7.38;3.92;;;;;;;;;;6066326;23;20257;-87
2022/08/26 18:06:57;;;;;;;12.10;3.80;;;;;;;;;;6049104;23;20193;-88
2022/08/26 18:10:03;;;;;;;8.73;3.67;;;;;;;;;;6066454;23;20250;-88
2022/08/26 18:13:08;;;;;;;6.93;4.00;;;;;;;;;;6066880;23;20179;-88
2022/08/26 18:16:13;;;;;;;10.02;4.00;;;;;;;;;;6064740;23;20271;-89
2022/08/26 18:19:18;;;;;;;10.05;4.53;;;;;;;;;;6065051;23;20285;-88
2022/08/26 18:22:24;;;;;;;9.80;4.32;;;;;;;;;;6065177;23;20175;-89
2022/08/26 18:25:29;;;;;;;12.57;4.15;;;;;;;;;;6064721;23;20179;-88
2022/08/26 18:28:34;;;;;;;11.45;4.63;;;;;;;;;;6066712;23;20166;-89
2022/08/26 18:31:41;;;;;;;10.60;4.53;;;;;;;;;;6065042;23;20591;-88